Terminal Aerodrome Forecast
Issued by NWS Cleveland, OH

Home | Current Version | Previous Version | Text Only | Print | Product List | Glossary On
Versions: 1 2 3 4 5 6 7 8 9 10 11 12 13 14 15 16 17 18 19 20 21 22 23 24 25 26 27 28
000
FTUS41 KCLE 300325 AAB
TAFCLE
TAF AMD
KCLE 300325Z 3003/0106 VRB04KT P6SM BKN035
     FM301300 06008KT P6SM OVC050
     FM302300 06008KT 4SM -RA OVC025
      TEMPO 0103/0106 4SM -RA OVC008=

USA.gov is the U.S. government's official web portal to all federal, state and local government web resources and services.